sensor_id;sensor_type;location;lat;lon;timestamp;P1;durP1;ratioP1;P2;durP2;ratioP2
17763;SDS011;22245;52.832;13.816;2024-03-23T00:56:25;10.27;;;2.90;;
17763;SDS011;22245;52.832;13.816;2024-03-23T00:59:46;17.20;;;2.93;;
17763;SDS011;22245;52.832;13.816;2024-03-23T01:03:06;10.50;;;2.90;;
17763;SDS011;22245;52.832;13.816;2024-03-23T01:06:26;12.70;;;2.93;;
17763;SDS011;22245;52.832;13.816;2024-03-23T01:09:46;13.50;;;3.70;;
17763;SDS011;22245;52.832;13.816;2024-03-23T01:13:08;15.47;;;3.70;;
17763;SDS011;22245;52.832;13.816;2024-03-23T01:16:28;14.30;;;3.70;;
17763;SDS011;22245;52.832;13.816;2024-03-23T01:19:49;16.77;;;3.23;;
17763;SDS011;22245;52.832;13.816;2024-03-23T01:23:09;15.00;;;2.93;;
17763;SDS011;22245;52.832;13.816;2024-03-23T01:26:30;12.17;;;3.03;;
17763;SDS011;22245;52.832;13.816;2024-03-23T01:29:52;13.13;;;3.07;;
17763;SDS011;22245;52.832;13.816;2024-03-23T01:33:13;12.20;;;3.03;;
17763;SDS011;22245;52.832;13.816;2024-03-23T01:36:34;16.10;;;3.47;;
17763;SDS011;22245;52.832;13.816;2024-03-23T01:39:54;12.83;;;2.90;;
17763;SDS011;22245;52.832;13.816;2024-03-23T01:43:14;12.47;;;2.97;;
17763;SDS011;22245;52.832;13.816;2024-03-23T01:46:35;17.40;;;4.00;;
17763;SDS011;22245;52.832;13.816;2024-03-23T01:49:57;16.90;;;3.20;;
17763;SDS011;22245;52.832;13.816;2024-03-23T01:53:17;10.70;;;3.13;;
17763;SDS011;22245;52.832;13.816;2024-03-23T01:56:40;12.67;;;3.00;;
17763;SDS011;22245;52.832;13.816;2024-03-23T02:00:00;13.53;;;3.50;;
17763;SDS011;22245;52.832;13.816;2024-03-23T02:03:32;13.37;;;2.90;;
17763;SDS011;22245;52.832;13.816;2024-03-23T02:06:53;19.47;;;3.97;;
17763;SDS011;22245;52.832;13.816;2024-03-23T02:10:13;11.07;;;2.93;;
17763;SDS011;22245;52.832;13.816;2024-03-23T02:13:34;14.87;;;2.97;;
17763;SDS011;22245;52.832;13.816;2024-03-23T02:16:54;14.97;;;3.20;;
17763;SDS011;22245;52.832;13.816;2024-03-23T02:20:16;9.37;;;2.90;;
17763;SDS011;22245;52.832;13.816;2024-03-23T02:23:38;16.67;;;3.33;;
17763;SDS011;22245;52.832;13.816;2024-03-23T02:26:58;18.20;;;3.87;;
17763;SDS011;22245;52.832;13.816;2024-03-23T02:30:18;12.20;;;3.30;;
17763;SDS011;22245;52.832;13.816;2024-03-23T02:33:38;12.00;;;3.57;;
17763;SDS011;22245;52.832;13.816;2024-03-23T02:36:58;15.77;;;3.37;;
17763;SDS011;22245;52.832;13.816;2024-03-23T02:40:19;11.73;;;2.67;;
17763;SDS011;22245;52.832;13.816;2024-03-23T02:43:40;9.40;;;2.70;;
17763;SDS011;22245;52.832;13.816;2024-03-23T02:47:01;16.17;;;3.50;;
17763;SDS011;22245;52.832;13.816;2024-03-23T02:50:21;13.60;;;2.87;;
17763;SDS011;22245;52.832;13.816;2024-03-23T02:53:41;9.33;;;2.90;;
17763;SDS011;22245;52.832;13.816;2024-03-23T02:57:03;12.53;;;2.60;;
17763;SDS011;22245;52.832;13.816;2024-03-23T03:00:24;12.90;;;2.97;;
17763;SDS011;22245;52.832;13.816;2024-03-23T03:03:44;10.50;;;2.50;;
17763;SDS011;22245;52.832;13.816;2024-03-23T03:07:05;9.20;;;2.67;;
17763;SDS011;22245;52.832;13.816;2024-03-23T03:10:26;14.63;;;3.27;;
17763;SDS011;22245;52.832;13.816;2024-03-23T03:13:47;9.00;;;2.47;;
17763;SDS011;22245;52.832;13.816;2024-03-23T03:17:07;12.90;;;2.80;;
17763;SDS011;22245;52.832;13.816;2024-03-23T03:20:27;12.37;;;2.87;;
17763;SDS011;22245;52.832;13.816;2024-03-23T03:23:48;11.43;;;3.27;;
17763;SDS011;22245;52.832;13.816;2024-03-23T03:27:09;14.90;;;3.07;;
17763;SDS011;22245;52.832;13.816;2024-03-23T03:30:31;10.20;;;2.73;;
17763;SDS011;22245;52.832;13.816;2024-03-23T03:33:52;8.83;;;3.13;;
17763;SDS011;22245;52.832;13.816;2024-03-23T03:37:11;13.90;;;3.13;;
17763;SDS011;22245;52.832;13.816;2024-03-23T03:40:31;10.20;;;2.83;;
17763;SDS011;22245;52.832;13.816;2024-03-23T03:43:52;7.93;;;3.40;;
17763;SDS011;22245;52.832;13.816;2024-03-23T03:47:15;13.20;;;3.20;;
17763;SDS011;22245;52.832;13.816;2024-03-23T03:50:36;10.50;;;2.80;;
17763;SDS011;22245;52.832;13.816;2024-03-23T03:53:55;10.67;;;2.97;;
17763;SDS011;22245;52.832;13.816;2024-03-23T03:57:15;11.90;;;3.00;;
17763;SDS011;22245;52.832;13.816;2024-03-23T04:00:36;8.80;;;2.47;;
17763;SDS011;22245;52.832;13.816;2024-03-23T04:03:56;12.67;;;3.27;;
17763;SDS011;22245;52.832;13.816;2024-03-23T04:07:17;8.20;;;2.73;;
17763;SDS011;22245;52.832;13.816;2024-03-23T04:10:39;9.90;;;2.70;;
17763;SDS011;22245;52.832;13.816;2024-03-23T04:13:59;11.53;;;2.83;;
17763;SDS011;22245;52.832;13.816;2024-03-23T04:17:20;9.17;;;2.67;;
17763;SDS011;22245;52.832;13.816;2024-03-23T04:20:42;8.63;;;2.60;;
17763;SDS011;22245;52.832;13.816;2024-03-23T04:24:02;14.23;;;3.60;;
17763;SDS011;22245;52.832;13.816;2024-03-23T04:27:23;14.07;;;3.00;;
17763;SDS011;22245;52.832;13.816;2024-03-23T04:30:44;8.60;;;2.73;;
17763;SDS011;22245;52.832;13.816;2024-03-23T04:34:04;10.70;;;2.93;;
17763;SDS011;22245;52.832;13.816;2024-03-23T04:37:26;12.03;;;2.90;;
17763;SDS011;22245;52.832;13.816;2024-03-23T04:40:53;14.00;;;3.70;;
17763;SDS011;22245;52.832;13.816;2024-03-23T04:44:14;10.03;;;3.00;;
17763;SDS011;22245;52.832;13.816;2024-03-23T04:47:34;8.13;;;2.90;;
17763;SDS011;22245;52.832;13.816;2024-03-23T04:50:55;12.50;;;3.43;;
17763;SDS011;22245;52.832;13.816;2024-03-23T04:54:19;10.43;;;3.13;;
17763;SDS011;22245;52.832;13.816;2024-03-23T04:57:41;7.23;;;2.80;;
17763;SDS011;22245;52.832;13.816;2024-03-23T05:01:03;12.17;;;2.50;;
17763;SDS011;22245;52.832;13.816;2024-03-23T05:04:22;12.03;;;3.07;;
17763;SDS011;22245;52.832;13.816;2024-03-23T05:07:43;7.70;;;2.97;;
17763;SDS011;22245;52.832;13.816;2024-03-23T05:11:04;8.40;;;2.90;;
17763;SDS011;22245;52.832;13.816;2024-03-23T05:14:26;7.67;;;2.73;;
17763;SDS011;22245;52.832;13.816;2024-03-23T05:17:47;7.83;;;2.33;;
17763;SDS011;22245;52.832;13.816;2024-03-23T05:21:07;10.50;;;2.70;;
17763;SDS011;22245;52.832;13.816;2024-03-23T05:24:28;10.20;;;2.93;;
17763;SDS011;22245;52.832;13.816;2024-03-23T05:27:49;8.57;;;2.70;;
17763;SDS011;22245;52.832;13.816;2024-03-23T05:31:10;9.60;;;2.63;;
17763;SDS011;22245;52.832;13.816;2024-03-23T05:34:29;7.40;;;2.60;;
17763;SDS011;22245;52.832;13.816;2024-03-23T05:37:50;6.70;;;2.47;;
17763;SDS011;22245;52.832;13.816;2024-03-23T05:41:10;12.97;;;2.90;;
17763;SDS011;22245;52.832;13.816;2024-03-23T05:44:33;5.37;;;2.03;;
17763;SDS011;22245;52.832;13.816;2024-03-23T05:47:52;7.60;;;2.40;;
17763;SDS011;22245;52.832;13.816;2024-03-23T05:51:13;9.60;;;2.40;;
17763;SDS011;22245;52.832;13.816;2024-03-23T05:54:32;6.07;;;2.67;;
17763;SDS011;22245;52.832;13.816;2024-03-23T05:57:52;7.13;;;2.10;;
17763;SDS011;22245;52.832;13.816;2024-03-23T06:01:14;6.30;;;2.20;;
17763;SDS011;22245;52.832;13.816;2024-03-23T06:04:35;5.03;;;2.10;;
17763;SDS011;22245;52.832;13.816;2024-03-23T06:07:56;12.07;;;2.40;;
17763;SDS011;22245;52.832;13.816;2024-03-23T06:11:17;7.20;;;2.00;;
17763;SDS011;22245;52.832;13.816;2024-03-23T06:14:37;4.97;;;2.10;;
17763;SDS011;22245;52.832;13.816;2024-03-23T06:17:59;4.57;;;2.00;;
17763;SDS011;22245;52.832;13.816;2024-03-23T06:21:19;5.63;;;2.27;;
17763;SDS011;22245;52.832;13.816;2024-03-23T06:24:39;6.75;;;1.90;;
17763;SDS011;22245;52.832;13.816;2024-03-23T06:27:59;7.03;;;2.00;;
17763;SDS011;22245;52.832;13.816;2024-03-23T06:31:20;9.07;;;2.50;;
17763;SDS011;22245;52.832;13.816;2024-03-23T06:34:42;4.77;;;1.90;;
17763;SDS011;22245;52.832;13.816;2024-03-23T06:38:03;7.53;;;2.40;;
17763;SDS011;22245;52.832;13.816;2024-03-23T06:41:23;5.73;;;2.23;;
17763;SDS011;22245;52.832;13.816;2024-03-23T06:44:44;9.50;;;3.20;;
17763;SDS011;22245;52.832;13.816;2024-03-23T06:48:04;7.67;;;3.37;;
17763;SDS011;22245;52.832;13.816;2024-03-23T06:51:28;9.23;;;2.87;;
17763;SDS011;22245;52.832;13.816;2024-03-23T06:54:49;10.40;;;3.03;;
17763;SDS011;22245;52.832;13.816;2024-03-23T06:58:09;6.47;;;2.50;;
17763;SDS011;22245;52.832;13.816;2024-03-23T07:01:29;7.47;;;2.03;;
17763;SDS011;22245;52.832;13.816;2024-03-23T07:04:49;5.03;;;2.73;;
17763;SDS011;22245;52.832;13.816;2024-03-23T07:08:11;5.57;;;1.40;;
17763;SDS011;22245;52.832;13.816;2024-03-23T07:11:37;6.03;;;1.53;;
17763;SDS011;22245;52.832;13.816;2024-03-23T07:14:58;5.73;;;1.90;;
17763;SDS011;22245;52.832;13.816;2024-03-23T07:18:18;4.13;;;1.63;;
17763;SDS011;22245;52.832;13.816;2024-03-23T07:21:38;3.70;;;1.37;;
17763;SDS011;22245;52.832;13.816;2024-03-23T07:25:00;8.53;;;2.33;;
17763;SDS011;22245;52.832;13.816;2024-03-23T07:28:20;5.50;;;1.70;;
17763;SDS011;22245;52.832;13.816;2024-03-23T07:31:40;4.30;;;1.67;;
17763;SDS011;22245;52.832;13.816;2024-03-23T07:35:02;7.27;;;1.90;;
17763;SDS011;22245;52.832;13.816;2024-03-23T07:38:23;7.73;;;1.70;;
17763;SDS011;22245;52.832;13.816;2024-03-23T07:41:45;4.40;;;1.60;;
17763;SDS011;22245;52.832;13.816;2024-03-23T07:45:06;6.80;;;1.87;;
17763;SDS011;22245;52.832;13.816;2024-03-23T07:48:28;4.13;;;2.03;;
17763;SDS011;22245;52.832;13.816;2024-03-23T07:51:49;5.43;;;1.93;;
17763;SDS011;22245;52.832;13.816;2024-03-23T07:55:09;4.53;;;1.63;;
17763;SDS011;22245;52.832;13.816;2024-03-23T07:58:31;5.70;;;1.60;;
17763;SDS011;22245;52.832;13.816;2024-03-23T08:01:51;5.50;;;1.73;;
17763;SDS011;22245;52.832;13.816;2024-03-23T08:05:11;4.03;;;1.50;;
17763;SDS011;22245;52.832;13.816;2024-03-23T08:08:31;5.80;;;1.40;;
17763;SDS011;22245;52.832;13.816;2024-03-23T08:11:51;5.97;;;1.57;;
17763;SDS011;22245;52.832;13.816;2024-03-23T08:15:13;4.33;;;1.57;;
17763;SDS011;22245;52.832;13.816;2024-03-23T08:18:34;5.23;;;1.60;;
17763;SDS011;22245;52.832;13.816;2024-03-23T08:21:54;4.63;;;1.63;;
17763;SDS011;22245;52.832;13.816;2024-03-23T08:25:15;7.87;;;1.40;;
17763;SDS011;22245;52.832;13.816;2024-03-23T08:28:35;4.07;;;1.40;;
17763;SDS011;22245;52.832;13.816;2024-03-23T08:31:58;4.43;;;1.57;;
17763;SDS011;22245;52.832;13.816;2024-03-23T08:35:20;6.53;;;1.20;;
17763;SDS011;22245;52.832;13.816;2024-03-23T08:38:39;4.47;;;1.50;;
17763;SDS011;22245;52.832;13.816;2024-03-23T08:42:00;5.40;;;1.43;;
17763;SDS011;22245;52.832;13.816;2024-03-23T08:45:21;3.93;;;1.33;;
17763;SDS011;22245;52.832;13.816;2024-03-23T08:48:43;5.50;;;1.27;;
17763;SDS011;22245;52.832;13.816;2024-03-23T08:52:04;6.70;;;1.67;;
17763;SDS011;22245;52.832;13.816;2024-03-23T08:55:25;3.93;;;1.50;;
17763;SDS011;22245;52.832;13.816;2024-03-23T08:58:45;5.53;;;1.53;;
17763;SDS011;22245;52.832;13.816;2024-03-23T09:02:06;3.97;;;1.80;;
17763;SDS011;22245;52.832;13.816;2024-03-23T09:05:26;5.40;;;1.77;;
17763;SDS011;22245;52.832;13.816;2024-03-23T09:08:47;4.93;;;1.70;;
17763;SDS011;22245;52.832;13.816;2024-03-23T09:12:08;4.00;;;1.30;;
17763;SDS011;22245;52.832;13.816;2024-03-23T09:15:28;4.47;;;1.97;;
17763;SDS011;22245;52.832;13.816;2024-03-23T09:18:48;6.17;;;1.93;;
17763;SDS011;22245;52.832;13.816;2024-03-23T09:22:09;6.00;;;1.77;;
17763;SDS011;22245;52.832;13.816;2024-03-23T09:25:30;5.90;;;1.80;;
17763;SDS011;22245;52.832;13.816;2024-03-23T09:28:51;7.53;;;2.20;;
17763;SDS011;22245;52.832;13.816;2024-03-23T09:32:12;5.30;;;1.73;;
17763;SDS011;22245;52.832;13.816;2024-03-23T09:35:32;8.13;;;2.70;;
17763;SDS011;22245;52.832;13.816;2024-03-23T09:38:53;6.63;;;2.20;;
17763;SDS011;22245;52.832;13.816;2024-03-23T09:42:14;6.77;;;1.70;;
17763;SDS011;22245;52.832;13.816;2024-03-23T09:45:35;4.77;;;1.90;;
17763;SDS011;22245;52.832;13.816;2024-03-23T09:48:58;2.93;;;1.33;;
17763;SDS011;22245;52.832;13.816;2024-03-23T09:52:19;4.40;;;1.60;;
17763;SDS011;22245;52.832;13.816;2024-03-23T09:55:41;3.80;;;1.50;;
17763;SDS011;22245;52.832;13.816;2024-03-23T09:59:02;3.00;;;0.97;;
17763;SDS011;22245;52.832;13.816;2024-03-23T10:02:23;5.27;;;1.20;;
17763;SDS011;22245;52.832;13.816;2024-03-23T10:05:43;3.57;;;1.00;;
17763;SDS011;22245;52.832;13.816;2024-03-23T10:09:05;3.10;;;1.00;;
17763;SDS011;22245;52.832;13.816;2024-03-23T10:12:40;5.80;;;1.63;;
17763;SDS011;22245;52.832;13.816;2024-03-23T10:16:03;6.30;;;2.93;;
17763;SDS011;22245;52.832;13.816;2024-03-23T10:19:30;6.00;;;2.23;;
17763;SDS011;22245;52.832;13.816;2024-03-23T10:22:50;4.80;;;1.47;;
17763;SDS011;22245;52.832;13.816;2024-03-23T10:26:15;5.50;;;1.50;;
17763;SDS011;22245;52.832;13.816;2024-03-23T10:29:38;9.37;;;2.07;;
17763;SDS011;22245;52.832;13.816;2024-03-23T10:33:06;5.13;;;1.30;;
17763;SDS011;22245;52.832;13.816;2024-03-23T10:36:27;4.40;;;1.30;;
17763;SDS011;22245;52.832;13.816;2024-03-23T10:39:49;3.60;;;1.20;;
17763;SDS011;22245;52.832;13.816;2024-03-23T10:43:09;8.80;;;1.93;;
17763;SDS011;22245;52.832;13.816;2024-03-23T10:46:31;6.07;;;1.70;;
17763;SDS011;22245;52.832;13.816;2024-03-23T10:49:52;9.80;;;2.47;;
17763;SDS011;22245;52.832;13.816;2024-03-23T10:53:13;6.13;;;2.23;;
17763;SDS011;22245;52.832;13.816;2024-03-23T10:56:37;5.70;;;1.70;;
17763;SDS011;22245;52.832;13.816;2024-03-23T11:00:01;2.30;;;1.20;;
17763;SDS011;22245;52.832;13.816;2024-03-23T11:03:34;5.87;;;1.50;;
17763;SDS011;22245;52.832;13.816;2024-03-23T11:06:56;5.47;;;1.50;;
17763;SDS011;22245;52.832;13.816;2024-03-23T11:10:24;4.27;;;1.37;;
17763;SDS011;22245;52.832;13.816;2024-03-23T11:13:47;4.93;;;1.30;;
17763;SDS011;22245;52.832;13.816;2024-03-23T11:17:08;4.63;;;1.40;;
17763;SDS011;22245;52.832;13.816;2024-03-23T11:20:32;6.80;;;1.70;;
17763;SDS011;22245;52.832;13.816;2024-03-23T11:23:53;3.93;;;1.20;;
17763;SDS011;22245;52.832;13.816;2024-03-23T11:27:15;3.70;;;1.70;;
17763;SDS011;22245;52.832;13.816;2024-03-23T11:30:36;4.83;;;1.30;;
17763;SDS011;22245;52.832;13.816;2024-03-23T11:34:02;4.57;;;1.50;;
17763;SDS011;22245;52.832;13.816;2024-03-23T11:37:25;5.17;;;1.57;;
17763;SDS011;22245;52.832;13.816;2024-03-23T11:40:46;4.53;;;1.60;;
17763;SDS011;22245;52.832;13.816;2024-03-23T11:44:14;6.07;;;1.70;;
17763;SDS011;22245;52.832;13.816;2024-03-23T11:47:35;7.80;;;1.87;;
17763;SDS011;22245;52.832;13.816;2024-03-23T11:50:56;4.80;;;1.50;;
17763;SDS011;22245;52.832;13.816;2024-03-23T11:54:21;5.07;;;1.50;;
17763;SDS011;22245;52.832;13.816;2024-03-23T11:57:42;3.90;;;1.47;;
17763;SDS011;22245;52.832;13.816;2024-03-23T12:01:03;3.17;;;1.43;;
17763;SDS011;22245;52.832;13.816;2024-03-23T12:04:27;5.20;;;1.70;;
17763;SDS011;22245;52.832;13.816;2024-03-23T12:07:47;5.53;;;1.77;;
17763;SDS011;22245;52.832;13.816;2024-03-23T12:11:11;7.20;;;2.70;;
17763;SDS011;22245;52.832;13.816;2024-03-23T12:14:33;6.67;;;2.47;;
17763;SDS011;22245;52.832;13.816;2024-03-23T12:18:05;9.20;;;2.50;;
17763;SDS011;22245;52.832;13.816;2024-03-23T12:21:26;6.17;;;2.10;;
17763;SDS011;22245;52.832;13.816;2024-03-23T12:24:47;7.90;;;2.40;;
17763;SDS011;22245;52.832;13.816;2024-03-23T12:28:08;8.90;;;1.87;;
17763;SDS011;22245;52.832;13.816;2024-03-23T12:31:28;7.07;;;2.07;;
17763;SDS011;22245;52.832;13.816;2024-03-23T12:34:49;6.63;;;1.90;;
17763;SDS011;22245;52.832;13.816;2024-03-23T12:38:09;7.20;;;2.27;;
17763;SDS011;22245;52.832;13.816;2024-03-23T12:41:29;8.33;;;2.13;;
17763;SDS011;22245;52.832;13.816;2024-03-23T12:44:52;9.67;;;2.23;;
17763;SDS011;22245;52.832;13.816;2024-03-23T12:48:11;8.37;;;2.70;;
17763;SDS011;22245;52.832;13.816;2024-03-23T12:51:32;9.20;;;2.37;;
17763;SDS011;22245;52.832;13.816;2024-03-23T12:54:53;7.63;;;2.50;;
17763;SDS011;22245;52.832;13.816;2024-03-23T12:58:14;10.90;;;2.70;;
17763;SDS011;22245;52.832;13.816;2024-03-23T13:01:36;10.67;;;2.50;;
17763;SDS011;22245;52.832;13.816;2024-03-23T13:04:56;9.37;;;2.70;;
17763;SDS011;22245;52.832;13.816;2024-03-23T13:08:17;10.57;;;3.20;;
17763;SDS011;22245;52.832;13.816;2024-03-23T13:11:37;10.57;;;2.83;;
17763;SDS011;22245;52.832;13.816;2024-03-23T13:14:57;10.37;;;2.80;;
17763;SDS011;22245;52.832;13.816;2024-03-23T13:18:19;8.00;;;2.53;;
17763;SDS011;22245;52.832;13.816;2024-03-23T13:21:39;15.10;;;3.50;;
17763;SDS011;22245;52.832;13.816;2024-03-23T13:24:59;11.60;;;3.17;;
17763;SDS011;22245;52.832;13.816;2024-03-23T13:28:20;12.67;;;3.00;;
17763;SDS011;22245;52.832;13.816;2024-03-23T13:31:41;12.03;;;3.07;;
17763;SDS011;22245;52.832;13.816;2024-03-23T13:35:02;15.97;;;3.77;;
17763;SDS011;22245;52.832;13.816;2024-03-23T13:38:25;16.13;;;3.43;;
17763;SDS011;22245;52.832;13.816;2024-03-23T13:41:46;8.87;;;2.90;;
17763;SDS011;22245;52.832;13.816;2024-03-23T13:45:07;11.37;;;3.37;;
17763;SDS011;22245;52.832;13.816;2024-03-23T13:48:27;12.03;;;3.73;;
17763;SDS011;22245;52.832;13.816;2024-03-23T13:51:49;10.47;;;3.27;;
17763;SDS011;22245;52.832;13.816;2024-03-23T13:55:10;12.60;;;3.00;;
17763;SDS011;22245;52.832;13.816;2024-03-23T13:58:34;10.37;;;3.50;;
17763;SDS011;22245;52.832;13.816;2024-03-23T14:01:54;13.10;;;3.30;;
17763;SDS011;22245;52.832;13.816;2024-03-23T14:05:15;12.07;;;2.70;;
17763;SDS011;22245;52.832;13.816;2024-03-23T14:08:36;8.37;;;2.63;;
17763;SDS011;22245;52.832;13.816;2024-03-23T14:11:58;9.80;;;2.80;;
17763;SDS011;22245;52.832;13.816;2024-03-23T14:15:19;11.70;;;2.53;;
17763;SDS011;22245;52.832;13.816;2024-03-23T14:18:39;12.20;;;2.60;;
17763;SDS011;22245;52.832;13.816;2024-03-23T14:22:00;6.50;;;2.50;;
17763;SDS011;22245;52.832;13.816;2024-03-23T14:25:22;9.87;;;2.20;;
17763;SDS011;22245;52.832;13.816;2024-03-23T14:28:46;9.67;;;2.73;;
17763;SDS011;22245;52.832;13.816;2024-03-23T14:32:06;8.83;;;2.63;;
17763;SDS011;22245;52.832;13.816;2024-03-23T14:35:26;5.27;;;2.37;;
17763;SDS011;22245;52.832;13.816;2024-03-23T14:38:47;8.93;;;2.23;;
17763;SDS011;22245;52.832;13.816;2024-03-23T14:42:09;4.43;;;1.60;;
17763;SDS011;22245;52.832;13.816;2024-03-23T14:45:29;5.60;;;1.77;;
17763;SDS011;22245;52.832;13.816;2024-03-23T14:48:49;5.93;;;1.83;;
17763;SDS011;22245;52.832;13.816;2024-03-23T14:52:10;4.77;;;2.40;;
17763;SDS011;22245;52.832;13.816;2024-03-23T14:55:29;5.20;;;1.77;;
17763;SDS011;22245;52.832;13.816;2024-03-23T14:58:53;3.97;;;1.80;;
17763;SDS011;22245;52.832;13.816;2024-03-23T15:02:14;4.40;;;1.50;;
17763;SDS011;22245;52.832;13.816;2024-03-23T15:05:34;2.63;;;1.43;;
17763;SDS011;22245;52.832;13.816;2024-03-23T15:08:55;3.07;;;1.50;;
17763;SDS011;22245;52.832;13.816;2024-03-23T15:12:14;4.90;;;1.70;;
17763;SDS011;22245;52.832;13.816;2024-03-23T15:15:39;4.87;;;1.50;;
17763;SDS011;22245;52.832;13.816;2024-03-23T15:19:01;6.07;;;1.77;;
17763;SDS011;22245;52.832;13.816;2024-03-23T15:22:21;8.27;;;2.20;;
17763;SDS011;22245;52.832;13.816;2024-03-23T15:25:42;3.80;;;1.60;;
17763;SDS011;22245;52.832;13.816;2024-03-23T15:29:01;2.63;;;1.60;;
17763;SDS011;22245;52.832;13.816;2024-03-23T15:32:32;4.90;;;1.80;;
17763;SDS011;22245;52.832;13.816;2024-03-23T15:35:53;4.03;;;1.30;;
17763;SDS011;22245;52.832;13.816;2024-03-23T15:39:13;4.70;;;1.80;;
17763;SDS011;22245;52.832;13.816;2024-03-23T15:42:34;5.53;;;1.40;;
17763;SDS011;22245;52.832;13.816;2024-03-23T15:45:54;7.33;;;1.63;;
17763;SDS011;22245;52.832;13.816;2024-03-23T15:49:16;3.07;;;1.30;;
17763;SDS011;22245;52.832;13.816;2024-03-23T15:52:36;2.83;;;1.37;;
17763;SDS011;22245;52.832;13.816;2024-03-23T15:55:56;3.07;;;1.23;;
17763;SDS011;22245;52.832;13.816;2024-03-23T15:59:17;5.37;;;1.40;;
17763;SDS011;22245;52.832;13.816;2024-03-23T16:02:37;5.53;;;1.45;;
17763;SDS011;22245;52.832;13.816;2024-03-23T16:05:58;4.88;;;1.35;;
17763;SDS011;22245;52.832;13.816;2024-03-23T16:09:20;4.68;;;1.50;;
17763;SDS011;22245;52.832;13.816;2024-03-23T16:12:39;4.68;;;1.55;;
17763;SDS011;22245;52.832;13.816;2024-03-23T16:16:00;2.70;;;1.40;;
17763;SDS011;22245;52.832;13.816;2024-03-23T16:19:23;5.20;;;1.48;;
17763;SDS011;22245;52.832;13.816;2024-03-23T16:22:45;2.63;;;1.15;;
17763;SDS011;22245;52.832;13.816;2024-03-23T16:26:05;5.43;;;1.63;;
17763;SDS011;22245;52.832;13.816;2024-03-23T16:29:26;4.38;;;1.25;;
17763;SDS011;22245;52.832;13.816;2024-03-23T16:32:46;4.53;;;1.52;;
17763;SDS011;22245;52.832;13.816;2024-03-23T16:36:07;4.45;;;1.50;;
17763;SDS011;22245;52.832;13.816;2024-03-23T16:39:30;3.88;;;1.55;;
17763;SDS011;22245;52.832;13.816;2024-03-23T16:42:51;3.25;;;1.90;;
17763;SDS011;22245;52.832;13.816;2024-03-23T16:46:11;6.53;;;1.65;;
17763;SDS011;22245;52.832;13.816;2024-03-23T16:49:33;4.75;;;1.65;;
17763;SDS011;22245;52.832;13.816;2024-03-23T16:52:53;4.83;;;2.00;;
17763;SDS011;22245;52.832;13.816;2024-03-23T16:56:15;4.70;;;1.83;;
17763;SDS011;22245;52.832;13.816;2024-03-23T16:59:36;3.60;;;1.65;;
17763;SDS011;22245;52.832;13.816;2024-03-23T17:02:56;7.07;;;1.87;;
17763;SDS011;22245;52.832;13.816;2024-03-23T17:06:17;3.90;;;1.90;;
17763;SDS011;22245;52.832;13.816;2024-03-23T17:09:46;8.33;;;2.33;;
17763;SDS011;22245;52.832;13.816;2024-03-23T17:13:07;3.80;;;2.00;;
17763;SDS011;22245;52.832;13.816;2024-03-23T17:16:28;3.20;;;2.00;;
17763;SDS011;22245;52.832;13.816;2024-03-23T17:19:49;5.07;;;2.73;;
17763;SDS011;22245;52.832;13.816;2024-03-23T17:23:10;4.80;;;2.80;;
17763;SDS011;22245;52.832;13.816;2024-03-23T17:26:31;5.80;;;2.47;;
17763;SDS011;22245;52.832;13.816;2024-03-23T17:29:53;7.43;;;3.00;;
17763;SDS011;22245;52.832;13.816;2024-03-23T17:33:13;5.27;;;2.50;;
17763;SDS011;22245;52.832;13.816;2024-03-23T17:36:33;5.50;;;2.60;;
17763;SDS011;22245;52.832;13.816;2024-03-23T17:39:55;13.53;;;3.83;;
17763;SDS011;22245;52.832;13.816;2024-03-23T17:43:14;7.27;;;3.30;;
17763;SDS011;22245;52.832;13.816;2024-03-23T17:46:36;7.77;;;3.27;;
17763;SDS011;22245;52.832;13.816;2024-03-23T17:49:55;13.07;;;4.20;;
17763;SDS011;22245;52.832;13.816;2024-03-23T17:53:16;9.17;;;3.10;;
17763;SDS011;22245;52.832;13.816;2024-03-23T17:56:36;6.07;;;2.97;;
17763;SDS011;22245;52.832;13.816;2024-03-23T17:59:57;11.27;;;3.23;;
17763;SDS011;22245;52.832;13.816;2024-03-23T18:03:19;10.47;;;5.37;;
17763;SDS011;22245;52.832;13.816;2024-03-23T18:06:38;6.50;;;3.03;;
17763;SDS011;22245;52.832;13.816;2024-03-23T18:09:59;8.30;;;3.30;;
17763;SDS011;22245;52.832;13.816;2024-03-23T18:13:19;5.47;;;2.53;;
17763;SDS011;22245;52.832;13.816;2024-03-23T18:16:39;6.83;;;3.27;;
17763;SDS011;22245;52.832;13.816;2024-03-23T18:20:02;8.57;;;3.33;;
17763;SDS011;22245;52.832;13.816;2024-03-23T18:23:24;5.53;;;2.93;;
17763;SDS011;22245;52.832;13.816;2024-03-23T18:26:43;7.20;;;2.77;;
17763;SDS011;22245;52.832;13.816;2024-03-23T18:30:04;3.97;;;2.03;;
17763;SDS011;22245;52.832;13.816;2024-03-23T18:33:24;6.07;;;2.53;;
17763;SDS011;22245;52.832;13.816;2024-03-23T18:36:47;6.87;;;1.90;;
17763;SDS011;22245;52.832;13.816;2024-03-23T18:40:07;4.83;;;1.70;;
17763;SDS011;22245;52.832;13.816;2024-03-23T18:43:29;4.77;;;2.07;;
17763;SDS011;22245;52.832;13.816;2024-03-23T18:46:48;5.77;;;3.07;;
17763;SDS011;22245;52.832;13.816;2024-03-23T18:50:09;4.77;;;2.50;;
17763;SDS011;22245;52.832;13.816;2024-03-23T18:53:29;5.20;;;2.23;;
17763;SDS011;22245;52.832;13.816;2024-03-23T18:56:50;3.47;;;1.70;;
17763;SDS011;22245;52.832;13.816;2024-03-23T19:00:11;1.90;;;1.50;;
17763;SDS011;22245;52.832;13.816;2024-03-23T19:03:33;3.83;;;1.70;;
17763;SDS011;22245;52.832;13.816;2024-03-23T19:06:53;3.90;;;1.60;;
17763;SDS011;22245;52.832;13.816;2024-03-23T19:10:15;3.73;;;1.70;;
17763;SDS011;22245;52.832;13.816;2024-03-23T19:13:35;2.90;;;1.77;;
17763;SDS011;22245;52.832;13.816;2024-03-23T19:16:56;6.47;;;1.80;;
17763;SDS011;22245;52.832;13.816;2024-03-23T19:20:15;4.43;;;1.80;;
17763;SDS011;22245;52.832;13.816;2024-03-23T19:23:36;5.37;;;2.00;;
17763;SDS011;22245;52.832;13.816;2024-03-23T19:26:57;4.63;;;1.73;;
17763;SDS011;22245;52.832;13.816;2024-03-23T19:30:18;5.17;;;2.17;;
17763;SDS011;22245;52.832;13.816;2024-03-23T19:33:38;3.97;;;2.03;;
17763;SDS011;22245;52.832;13.816;2024-03-23T19:36:59;3.17;;;1.83;;
17763;SDS011;22245;52.832;13.816;2024-03-23T19:40:19;6.67;;;2.20;;
17763;SDS011;22245;52.832;13.816;2024-03-23T19:43:41;7.33;;;2.73;;
17763;SDS011;22245;52.832;13.816;2024-03-23T19:47:03;8.63;;;3.67;;
17763;SDS011;22245;52.832;13.816;2024-03-23T19:50:23;3.30;;;2.10;;
17763;SDS011;22245;52.832;13.816;2024-03-23T19:53:44;2.37;;;1.37;;
17763;SDS011;22245;52.832;13.816;2024-03-23T19:57:04;4.63;;;1.70;;
17763;SDS011;22245;52.832;13.816;2024-03-23T20:00:26;3.30;;;1.80;;
17763;SDS011;22245;52.832;13.816;2024-03-23T20:03:45;2.43;;;1.50;;
17763;SDS011;22245;52.832;13.816;2024-03-23T20:07:06;2.57;;;1.80;;
17763;SDS011;22245;52.832;13.816;2024-03-23T20:10:27;5.20;;;2.03;;
17763;SDS011;22245;52.832;13.816;2024-03-23T20:13:46;6.53;;;2.73;;
17763;SDS011;22245;52.832;13.816;2024-03-23T20:17:11;3.97;;;1.80;;
17763;SDS011;22245;52.832;13.816;2024-03-23T20:20:30;6.10;;;1.83;;
17763;SDS011;22245;52.832;13.816;2024-03-23T20:23:50;4.33;;;1.80;;
17763;SDS011;22245;52.832;13.816;2024-03-23T20:27:10;5.23;;;1.90;;
17763;SDS011;22245;52.832;13.816;2024-03-23T20:30:31;4.60;;;1.80;;
17763;SDS011;22245;52.832;13.816;2024-03-23T20:33:52;4.00;;;1.73;;
17763;SDS011;22245;52.832;13.816;2024-03-23T20:37:15;4.07;;;1.57;;
17763;SDS011;22245;52.832;13.816;2024-03-23T20:40:35;3.90;;;1.40;;
17763;SDS011;22245;52.832;13.816;2024-03-23T20:43:55;4.07;;;2.03;;